sensor_id;sensor_type;location;lat;lon;timestamp;P1;durP1;ratioP1;P2;durP2;ratioP2
12308;SDS011;6217;48.150;17.142;2023-02-15T00:03:38;14.38;;;10.30;;
12308;SDS011;6217;48.150;17.142;2023-02-15T00:07:44;16.85;;;11.20;;
12308;SDS011;6217;48.150;17.142;2023-02-15T00:11:50;18.08;;;11.68;;
12308;SDS011;6217;48.150;17.142;2023-02-15T00:16:02;19.63;;;11.73;;
12308;SDS011;6217;48.150;17.142;2023-02-15T00:20:10;17.55;;;11.48;;
12308;SDS011;6217;48.150;17.142;2023-02-15T00:24:17;21.20;;;11.32;;
12308;SDS011;6217;48.150;17.142;2023-02-15T00:28:24;18.42;;;11.40;;
12308;SDS011;6217;48.150;17.142;2023-02-15T00:32:30;20.83;;;12.52;;
12308;SDS011;6217;48.150;17.142;2023-02-15T00:36:37;19.80;;;11.65;;
12308;SDS011;6217;48.150;17.142;2023-02-15T00:40:43;18.45;;;11.05;;
12308;SDS011;6217;48.150;17.142;2023-02-15T00:44:49;17.58;;;11.10;;
12308;SDS011;6217;48.150;17.142;2023-02-15T00:48:55;18.25;;;11.13;;
12308;SDS011;6217;48.150;17.142;2023-02-15T00:53:01;18.25;;;10.63;;
12308;SDS011;6217;48.150;17.142;2023-02-15T00:57:07;17.30;;;11.15;;
12308;SDS011;6217;48.150;17.142;2023-02-15T01:01:15;18.13;;;12.02;;
12308;SDS011;6217;48.150;17.142;2023-02-15T01:05:23;17.83;;;11.13;;
12308;SDS011;6217;48.150;17.142;2023-02-15T01:09:29;20.92;;;12.27;;
12308;SDS011;6217;48.150;17.142;2023-02-15T01:13:36;16.55;;;10.93;;
12308;SDS011;6217;48.150;17.142;2023-02-15T01:17:44;16.77;;;10.65;;
12308;SDS011;6217;48.150;17.142;2023-02-15T01:21:56;21.73;;;12.10;;
12308;SDS011;6217;48.150;17.142;2023-02-15T01:26:02;17.83;;;10.05;;
12308;SDS011;6217;48.150;17.142;2023-02-15T01:30:08;19.67;;;11.80;;
12308;SDS011;6217;48.150;17.142;2023-02-15T01:34:15;17.52;;;10.93;;
12308;SDS011;6217;48.150;17.142;2023-02-15T01:38:21;18.63;;;11.25;;
12308;SDS011;6217;48.150;17.142;2023-02-15T01:42:27;19.42;;;10.73;;
12308;SDS011;6217;48.150;17.142;2023-02-15T01:46:35;25.45;;;12.88;;
12308;SDS011;6217;48.150;17.142;2023-02-15T01:50:47;21.55;;;11.57;;
12308;SDS011;6217;48.150;17.142;2023-02-15T01:54:59;19.10;;;10.57;;
12308;SDS011;6217;48.150;17.142;2023-02-15T01:59:07;17.90;;;10.65;;
12308;SDS011;6217;48.150;17.142;2023-02-15T02:08:03;17.60;;;11.35;;
12308;SDS011;6217;48.150;17.142;2023-02-15T02:12:10;21.75;;;12.23;;
12308;SDS011;6217;48.150;17.142;2023-02-15T02:34:43;18.33;;;11.85;;
12308;SDS011;6217;48.150;17.142;2023-02-15T02:43:58;21.08;;;13.00;;
12308;SDS011;6217;48.150;17.142;2023-02-15T02:48:23;22.63;;;12.63;;
12308;SDS011;6217;48.150;17.142;2023-02-15T02:52:35;23.77;;;13.15;;
12308;SDS011;6217;48.150;17.142;2023-02-15T02:56:46;22.67;;;12.88;;
12308;SDS011;6217;48.150;17.142;2023-02-15T03:01:13;20.80;;;12.50;;
12308;SDS011;6217;48.150;17.142;2023-02-15T03:05:27;20.67;;;12.57;;
12308;SDS011;6217;48.150;17.142;2023-02-15T03:09:44;18.33;;;11.07;;
12308;SDS011;6217;48.150;17.142;2023-02-15T03:13:53;22.75;;;11.48;;
12308;SDS011;6217;48.150;17.142;2023-02-15T03:18:00;19.65;;;11.65;;
12308;SDS011;6217;48.150;17.142;2023-02-15T03:22:15;23.63;;;13.00;;
12308;SDS011;6217;48.150;17.142;2023-02-15T03:26:26;20.00;;;11.90;;
12308;SDS011;6217;48.150;17.142;2023-02-15T03:30:36;25.35;;;13.10;;
12308;SDS011;6217;48.150;17.142;2023-02-15T03:34:44;24.45;;;13.25;;
12308;SDS011;6217;48.150;17.142;2023-02-15T03:38:53;21.92;;;12.38;;
12308;SDS011;6217;48.150;17.142;2023-02-15T03:43:21;20.73;;;12.13;;
12308;SDS011;6217;48.150;17.142;2023-02-15T03:47:48;27.98;;;13.48;;
12308;SDS011;6217;48.150;17.142;2023-02-15T03:51:57;23.23;;;13.70;;
12308;SDS011;6217;48.150;17.142;2023-02-15T03:56:05;19.63;;;12.30;;
12308;SDS011;6217;48.150;17.142;2023-02-15T04:00:14;25.90;;;13.77;;
12308;SDS011;6217;48.150;17.142;2023-02-15T04:04:46;24.38;;;13.80;;
12308;SDS011;6217;48.150;17.142;2023-02-15T04:08:53;23.75;;;13.05;;
12308;SDS011;6217;48.150;17.142;2023-02-15T04:13:24;27.38;;;13.27;;
12308;SDS011;6217;48.150;17.142;2023-02-15T04:17:36;23.38;;;13.65;;
12308;SDS011;6217;48.150;17.142;2023-02-15T04:21:43;25.40;;;12.80;;
12308;SDS011;6217;48.150;17.142;2023-02-15T04:26:07;28.67;;;12.90;;
12308;SDS011;6217;48.150;17.142;2023-02-15T04:30:13;24.30;;;13.40;;
12308;SDS011;6217;48.150;17.142;2023-02-15T04:34:21;27.60;;;14.88;;
12308;SDS011;6217;48.150;17.142;2023-02-15T04:38:28;23.52;;;13.68;;
12308;SDS011;6217;48.150;17.142;2023-02-15T04:42:33;33.20;;;16.80;;
12308;SDS011;6217;48.150;17.142;2023-02-15T04:46:39;32.78;;;16.85;;
12308;SDS011;6217;48.150;17.142;2023-02-15T04:50:45;39.13;;;17.98;;
12308;SDS011;6217;48.150;17.142;2023-02-15T04:54:51;30.65;;;17.23;;
12308;SDS011;6217;48.150;17.142;2023-02-15T04:58:57;35.47;;;18.23;;
12308;SDS011;6217;48.150;17.142;2023-02-15T05:03:03;39.45;;;18.67;;
12308;SDS011;6217;48.150;17.142;2023-02-15T05:07:09;36.42;;;19.00;;
12308;SDS011;6217;48.150;17.142;2023-02-15T05:11:15;38.00;;;17.40;;
12308;SDS011;6217;48.150;17.142;2023-02-15T05:15:21;41.50;;;20.02;;
12308;SDS011;6217;48.150;17.142;2023-02-15T05:19:27;40.47;;;20.77;;
12308;SDS011;6217;48.150;17.142;2023-02-15T05:23:33;33.75;;;18.50;;
12308;SDS011;6217;48.150;17.142;2023-02-15T05:27:39;40.38;;;20.25;;
12308;SDS011;6217;48.150;17.142;2023-02-15T05:32:03;35.95;;;20.73;;
12308;SDS011;6217;48.150;17.142;2023-02-15T05:36:09;33.13;;;18.80;;
12308;SDS011;6217;48.150;17.142;2023-02-15T05:40:16;35.20;;;18.13;;
12308;SDS011;6217;48.150;17.142;2023-02-15T05:44:22;35.00;;;18.20;;
12308;SDS011;6217;48.150;17.142;2023-02-15T05:48:29;34.13;;;19.48;;
12308;SDS011;6217;48.150;17.142;2023-02-15T05:52:35;31.77;;;16.35;;
12308;SDS011;6217;48.150;17.142;2023-02-15T05:56:42;30.45;;;18.25;;
12308;SDS011;6217;48.150;17.142;2023-02-15T06:00:47;36.20;;;19.45;;
12308;SDS011;6217;48.150;17.142;2023-02-15T06:04:53;34.28;;;18.02;;
12308;SDS011;6217;48.150;17.142;2023-02-15T06:08:59;34.03;;;19.73;;
12308;SDS011;6217;48.150;17.142;2023-02-15T06:13:05;35.22;;;18.45;;
12308;SDS011;6217;48.150;17.142;2023-02-15T06:17:11;29.95;;;18.60;;
12308;SDS011;6217;48.150;17.142;2023-02-15T06:21:17;35.70;;;19.60;;
12308;SDS011;6217;48.150;17.142;2023-02-15T06:25:23;34.75;;;18.38;;
12308;SDS011;6217;48.150;17.142;2023-02-15T06:29:29;37.88;;;19.70;;
12308;SDS011;6217;48.150;17.142;2023-02-15T06:33:35;36.85;;;20.10;;
12308;SDS011;6217;48.150;17.142;2023-02-15T06:37:41;39.85;;;19.25;;
12308;SDS011;6217;48.150;17.142;2023-02-15T06:41:47;37.83;;;21.75;;
12308;SDS011;6217;48.150;17.142;2023-02-15T06:45:53;36.10;;;21.65;;
12308;SDS011;6217;48.150;17.142;2023-02-15T06:49:59;35.28;;;19.05;;
12308;SDS011;6217;48.150;17.142;2023-02-15T06:54:05;33.85;;;20.80;;
12308;SDS011;6217;48.150;17.142;2023-02-15T06:58:11;36.33;;;20.83;;
12308;SDS011;6217;48.150;17.142;2023-02-15T07:02:17;40.03;;;22.30;;
12308;SDS011;6217;48.150;17.142;2023-02-15T07:06:23;40.25;;;22.40;;
12308;SDS011;6217;48.150;17.142;2023-02-15T07:10:29;43.55;;;24.17;;
12308;SDS011;6217;48.150;17.142;2023-02-15T07:14:35;47.42;;;25.33;;
12308;SDS011;6217;48.150;17.142;2023-02-15T07:18:41;44.58;;;24.80;;
12308;SDS011;6217;48.150;17.142;2023-02-15T07:22:47;37.30;;;23.63;;
12308;SDS011;6217;48.150;17.142;2023-02-15T07:26:53;37.42;;;20.63;;
12308;SDS011;6217;48.150;17.142;2023-02-15T07:31:02;35.03;;;21.67;;
12308;SDS011;6217;48.150;17.142;2023-02-15T07:35:09;39.72;;;23.55;;
12308;SDS011;6217;48.150;17.142;2023-02-15T07:39:15;38.33;;;22.95;;
12308;SDS011;6217;48.150;17.142;2023-02-15T07:43:21;33.97;;;21.40;;
12308;SDS011;6217;48.150;17.142;2023-02-15T07:47:27;32.33;;;20.98;;
12308;SDS011;6217;48.150;17.142;2023-02-15T07:51:33;34.90;;;19.23;;
12308;SDS011;6217;48.150;17.142;2023-02-15T07:55:39;27.05;;;19.35;;
12308;SDS011;6217;48.150;17.142;2023-02-15T07:59:45;33.42;;;17.33;;
12308;SDS011;6217;48.150;17.142;2023-02-15T08:03:51;24.23;;;16.98;;
12308;SDS011;6217;48.150;17.142;2023-02-15T08:07:57;24.10;;;15.90;;
12308;SDS011;6217;48.150;17.142;2023-02-15T08:12:03;33.05;;;19.88;;
12308;SDS011;6217;48.150;17.142;2023-02-15T08:16:10;28.55;;;18.15;;
12308;SDS011;6217;48.150;17.142;2023-02-15T08:20:16;36.55;;;21.40;;
12308;SDS011;6217;48.150;17.142;2023-02-15T08:24:22;38.25;;;20.92;;
12308;SDS011;6217;48.150;17.142;2023-02-15T08:28:31;44.00;;;21.65;;
12308;SDS011;6217;48.150;17.142;2023-02-15T08:32:37;37.90;;;20.63;;
12308;SDS011;6217;48.150;17.142;2023-02-15T08:36:43;32.10;;;20.00;;
12308;SDS011;6217;48.150;17.142;2023-02-15T08:40:50;38.20;;;22.67;;
12308;SDS011;6217;48.150;17.142;2023-02-15T08:44:56;34.15;;;20.58;;
12308;SDS011;6217;48.150;17.142;2023-02-15T08:49:02;35.90;;;22.40;;
12308;SDS011;6217;48.150;17.142;2023-02-15T08:53:08;35.90;;;21.98;;
12308;SDS011;6217;48.150;17.142;2023-02-15T08:57:14;36.90;;;21.80;;
12308;SDS011;6217;48.150;17.142;2023-02-15T09:01:21;41.85;;;22.67;;
12308;SDS011;6217;48.150;17.142;2023-02-15T09:05:29;46.70;;;24.85;;
12308;SDS011;6217;48.150;17.142;2023-02-15T09:09:35;36.80;;;21.58;;
12308;SDS011;6217;48.150;17.142;2023-02-15T09:13:41;34.65;;;19.92;;
12308;SDS011;6217;48.150;17.142;2023-02-15T09:17:47;36.85;;;21.65;;
12308;SDS011;6217;48.150;17.142;2023-02-15T09:21:53;36.35;;;20.83;;
12308;SDS011;6217;48.150;17.142;2023-02-15T09:26:03;42.78;;;22.40;;
12308;SDS011;6217;48.150;17.142;2023-02-15T09:30:12;34.85;;;22.67;;
12308;SDS011;6217;48.150;17.142;2023-02-15T09:34:20;42.40;;;23.58;;
12308;SDS011;6217;48.150;17.142;2023-02-15T09:38:27;35.40;;;21.27;;
12308;SDS011;6217;48.150;17.142;2023-02-15T09:42:42;39.97;;;23.05;;
12308;SDS011;6217;48.150;17.142;2023-02-15T09:52:01;41.40;;;22.80;;
12308;SDS011;6217;48.150;17.142;2023-02-15T09:56:33;45.78;;;26.52;;
12308;SDS011;6217;48.150;17.142;2023-02-15T10:01:07;45.22;;;24.88;;
12308;SDS011;6217;48.150;17.142;2023-02-15T10:05:40;39.22;;;24.98;;
12308;SDS011;6217;48.150;17.142;2023-02-15T10:19:28;39.97;;;24.35;;
12308;SDS011;6217;48.150;17.142;2023-02-15T10:28:42;52.05;;;30.55;;
12308;SDS011;6217;48.150;17.142;2023-02-15T10:33:05;44.90;;;28.45;;
12308;SDS011;6217;48.150;17.142;2023-02-15T10:41:36;52.25;;;29.00;;
12308;SDS011;6217;48.150;17.142;2023-02-15T10:51:37;35.22;;;23.20;;
12308;SDS011;6217;48.150;17.142;2023-02-15T11:04:49;43.90;;;27.17;;
12308;SDS011;6217;48.150;17.142;2023-02-15T11:09:21;37.28;;;24.42;;
12308;SDS011;6217;48.150;17.142;2023-02-15T11:13:32;40.83;;;25.02;;
12308;SDS011;6217;48.150;17.142;2023-02-15T11:17:58;39.20;;;23.80;;
12308;SDS011;6217;48.150;17.142;2023-02-15T11:22:13;38.10;;;26.10;;
12308;SDS011;6217;48.150;17.142;2023-02-15T11:26:28;41.75;;;25.98;;
12308;SDS011;6217;48.150;17.142;2023-02-15T11:30:46;42.50;;;25.13;;
12308;SDS011;6217;48.150;17.142;2023-02-15T11:39:19;45.38;;;27.02;;
12308;SDS011;6217;48.150;17.142;2023-02-15T11:43:37;43.20;;;27.17;;
12308;SDS011;6217;48.150;17.142;2023-02-15T11:47:56;44.92;;;27.85;;
12308;SDS011;6217;48.150;17.142;2023-02-15T11:52:07;45.58;;;26.80;;
12308;SDS011;6217;48.150;17.142;2023-02-15T11:56:24;39.08;;;23.83;;
12308;SDS011;6217;48.150;17.142;2023-02-15T12:00:38;39.40;;;24.60;;
12308;SDS011;6217;48.150;17.142;2023-02-15T12:04:52;46.10;;;27.42;;
12308;SDS011;6217;48.150;17.142;2023-02-15T12:13:53;39.35;;;25.52;;
12308;SDS011;6217;48.150;17.142;2023-02-15T12:18:04;40.97;;;26.58;;
12308;SDS011;6217;48.150;17.142;2023-02-15T12:22:24;44.67;;;26.52;;
12308;SDS011;6217;48.150;17.142;2023-02-15T12:26:35;45.95;;;26.95;;
12308;SDS011;6217;48.150;17.142;2023-02-15T12:30:42;42.05;;;27.20;;
12308;SDS011;6217;48.150;17.142;2023-02-15T12:34:48;43.00;;;25.80;;
12308;SDS011;6217;48.150;17.142;2023-02-15T12:43:25;45.23;;;26.83;;
12308;SDS011;6217;48.150;17.142;2023-02-15T12:47:35;49.15;;;26.70;;
12308;SDS011;6217;48.150;17.142;2023-02-15T13:04:32;44.30;;;26.13;;
12308;SDS011;6217;48.150;17.142;2023-02-15T13:08:49;48.22;;;29.85;;
12308;SDS011;6217;48.150;17.142;2023-02-15T13:12:58;47.20;;;28.33;;
12308;SDS011;6217;48.150;17.142;2023-02-15T13:17:07;47.65;;;28.55;;
12308;SDS011;6217;48.150;17.142;2023-02-15T13:21:19;50.95;;;28.95;;
12308;SDS011;6217;48.150;17.142;2023-02-15T13:25:31;44.50;;;27.50;;
12308;SDS011;6217;48.150;17.142;2023-02-15T13:29:50;53.85;;;31.92;;
12308;SDS011;6217;48.150;17.142;2023-02-15T13:34:07;51.28;;;29.50;;
12308;SDS011;6217;48.150;17.142;2023-02-15T14:00:52;50.13;;;31.83;;
12308;SDS011;6217;48.150;17.142;2023-02-15T14:28:30;48.83;;;32.13;;
12308;SDS011;6217;48.150;17.142;2023-02-15T14:33:01;52.17;;;28.70;;
12308;SDS011;6217;48.150;17.142;2023-02-15T14:42:15;48.00;;;28.35;;
12308;SDS011;6217;48.150;17.142;2023-02-15T14:50:55;43.92;;;27.88;;
12308;SDS011;6217;48.150;17.142;2023-02-15T14:55:01;46.08;;;28.83;;
12308;SDS011;6217;48.150;17.142;2023-02-15T15:03:20;45.30;;;27.70;;
12308;SDS011;6217;48.150;17.142;2023-02-15T15:07:46;43.97;;;27.40;;
12308;SDS011;6217;48.150;17.142;2023-02-15T15:20:45;43.67;;;27.05;;
12308;SDS011;6217;48.150;17.142;2023-02-15T15:24:54;40.15;;;25.48;;
12308;SDS011;6217;48.150;17.142;2023-02-15T15:29:03;45.45;;;26.27;;
12308;SDS011;6217;48.150;17.142;2023-02-15T15:51:52;45.42;;;26.50;;
12308;SDS011;6217;48.150;17.142;2023-02-15T15:56:03;49.22;;;28.10;;
12308;SDS011;6217;48.150;17.142;2023-02-15T16:04:36;46.33;;;26.10;;
12308;SDS011;6217;48.150;17.142;2023-02-15T16:08:42;41.55;;;23.90;;
12308;SDS011;6217;48.150;17.142;2023-02-15T16:12:48;47.47;;;25.77;;
12308;SDS011;6217;48.150;17.142;2023-02-15T16:16:56;43.55;;;25.63;;
12308;SDS011;6217;48.150;17.142;2023-02-15T16:21:05;45.65;;;27.00;;
12308;SDS011;6217;48.150;17.142;2023-02-15T16:29:47;47.47;;;27.13;;
12308;SDS011;6217;48.150;17.142;2023-02-15T16:33:54;45.50;;;27.27;;
12308;SDS011;6217;48.150;17.142;2023-02-15T16:38:01;47.97;;;27.83;;
12308;SDS011;6217;48.150;17.142;2023-02-15T16:42:08;54.05;;;30.65;;
12308;SDS011;6217;48.150;17.142;2023-02-15T16:46:20;52.53;;;28.23;;
12308;SDS011;6217;48.150;17.142;2023-02-15T16:50:41;51.97;;;29.95;;
12308;SDS011;6217;48.150;17.142;2023-02-15T16:54:58;55.08;;;31.02;;
12308;SDS011;6217;48.150;17.142;2023-02-15T16:59:14;51.45;;;28.02;;
12308;SDS011;6217;48.150;17.142;2023-02-15T17:03:35;58.42;;;32.92;;
12308;SDS011;6217;48.150;17.142;2023-02-15T17:07:42;53.78;;;31.10;;
12308;SDS011;6217;48.150;17.142;2023-02-15T17:12:45;53.40;;;32.05;;
12308;SDS011;6217;48.150;17.142;2023-02-15T17:17:06;51.53;;;30.23;;
12308;SDS011;6217;48.150;17.142;2023-02-15T17:21:18;65.15;;;34.80;;
12308;SDS011;6217;48.150;17.142;2023-02-15T17:25:35;56.75;;;32.67;;
12308;SDS011;6217;48.150;17.142;2023-02-15T17:29:46;52.60;;;31.77;;
12308;SDS011;6217;48.150;17.142;2023-02-15T17:34:01;59.38;;;33.78;;
12308;SDS011;6217;48.150;17.142;2023-02-15T17:38:17;54.33;;;33.70;;
12308;SDS011;6217;48.150;17.142;2023-02-15T17:42:25;58.30;;;33.40;;
12308;SDS011;6217;48.150;17.142;2023-02-15T17:46:34;60.83;;;33.40;;
12308;SDS011;6217;48.150;17.142;2023-02-15T17:50:42;68.50;;;38.13;;
12308;SDS011;6217;48.150;17.142;2023-02-15T17:54:48;74.38;;;40.33;;
12308;SDS011;6217;48.150;17.142;2023-02-15T17:59:12;73.38;;;39.22;;
12308;SDS011;6217;48.150;17.142;2023-02-15T18:03:19;76.90;;;39.60;;
12308;SDS011;6217;48.150;17.142;2023-02-15T18:07:44;66.97;;;38.30;;
12308;SDS011;6217;48.150;17.142;2023-02-15T18:16:38;71.07;;;38.80;;
12308;SDS011;6217;48.150;17.142;2023-02-15T18:20:47;65.43;;;37.58;;
12308;SDS011;6217;48.150;17.142;2023-02-15T18:24:53;75.60;;;42.00;;
12308;SDS011;6217;48.150;17.142;2023-02-15T18:28:59;74.95;;;42.15;;
12308;SDS011;6217;48.150;17.142;2023-02-15T18:33:05;75.82;;;41.63;;
12308;SDS011;6217;48.150;17.142;2023-02-15T18:37:15;86.43;;;41.92;;
12308;SDS011;6217;48.150;17.142;2023-02-15T18:41:24;76.45;;;42.75;;
12308;SDS011;6217;48.150;17.142;2023-02-15T18:45:30;72.00;;;41.67;;
12308;SDS011;6217;48.150;17.142;2023-02-15T18:49:37;78.03;;;43.08;;
12308;SDS011;6217;48.150;17.142;2023-02-15T18:53:43;75.10;;;43.25;;
12308;SDS011;6217;48.150;17.142;2023-02-15T18:57:51;83.88;;;46.25;;
12308;SDS011;6217;48.150;17.142;2023-02-15T19:01:58;84.82;;;45.13;;
12308;SDS011;6217;48.150;17.142;2023-02-15T19:06:07;78.40;;;45.50;;
12308;SDS011;6217;48.150;17.142;2023-02-15T19:10:17;84.18;;;48.13;;
12308;SDS011;6217;48.150;17.142;2023-02-15T19:14:30;88.85;;;45.42;;
12308;SDS011;6217;48.150;17.142;2023-02-15T19:18:36;85.72;;;45.53;;
12308;SDS011;6217;48.150;17.142;2023-02-15T19:22:42;93.38;;;48.40;;
12308;SDS011;6217;48.150;17.142;2023-02-15T19:26:51;91.68;;;47.63;;
12308;SDS011;6217;48.150;17.142;2023-02-15T19:30:57;92.40;;;50.20;;
12308;SDS011;6217;48.150;17.142;2023-02-15T19:35:03;84.00;;;46.75;;
12308;SDS011;6217;48.150;17.142;2023-02-15T19:39:42;81.45;;;43.72;;
12308;SDS011;6217;48.150;17.142;2023-02-15T19:43:46;81.72;;;44.13;;
12308;SDS011;6217;48.150;17.142;2023-02-15T19:47:59;78.13;;;41.70;;
12308;SDS011;6217;48.150;17.142;2023-02-15T19:52:12;82.18;;;41.65;;
12308;SDS011;6217;48.150;17.142;2023-02-15T19:56:27;83.13;;;42.53;;
12308;SDS011;6217;48.150;17.142;2023-02-15T20:00:33;67.30;;;38.55;;
12308;SDS011;6217;48.150;17.142;2023-02-15T20:04:39;73.57;;;40.20;;
12308;SDS011;6217;48.150;17.142;2023-02-15T20:08:45;75.07;;;42.97;;
12308;SDS011;6217;48.150;17.142;2023-02-15T20:12:51;80.53;;;43.83;;
12308;SDS011;6217;48.150;17.142;2023-02-15T20:16:59;73.90;;;40.30;;
12308;SDS011;6217;48.150;17.142;2023-02-15T20:21:04;84.05;;;47.13;;
12308;SDS011;6217;48.150;17.142;2023-02-15T20:25:19;81.07;;;46.42;;
12308;SDS011;6217;48.150;17.142;2023-02-15T20:29:30;92.35;;;49.50;;
12308;SDS011;6217;48.150;17.142;2023-02-15T20:33:35;89.65;;;50.03;;
12308;SDS011;6217;48.150;17.142;2023-02-15T20:37:42;88.10;;;49.08;;
12308;SDS011;6217;48.150;17.142;2023-02-15T20:41:50;89.15;;;51.40;;
12308;SDS011;6217;48.150;17.142;2023-02-15T20:45:56;96.88;;;51.28;;
12308;SDS011;6217;48.150;17.142;2023-02-15T20:50:03;85.50;;;47.22;;
12308;SDS011;6217;48.150;17.142;2023-02-15T20:54:13;93.10;;;51.20;;
12308;SDS011;6217;48.150;17.142;2023-02-15T20:58:26;93.75;;;52.95;;
12308;SDS011;6217;48.150;17.142;2023-02-15T21:02:34;100.72;;;55.00;;
12308;SDS011;6217;48.150;17.142;2023-02-15T21:06:40;100.15;;;59.25;;
12308;SDS011;6217;48.150;17.142;2023-02-15T21:10:47;109.75;;;58.17;;
12308;SDS011;6217;48.150;17.142;2023-02-15T21:14:54;112.35;;;60.55;;
12308;SDS011;6217;48.150;17.142;2023-02-15T21:19:01;101.95;;;58.28;;
12308;SDS011;6217;48.150;17.142;2023-02-15T21:23:20;92.47;;;53.28;;
12308;SDS011;6217;48.150;17.142;2023-02-15T21:27:30;99.30;;;53.55;;
12308;SDS011;6217;48.150;17.142;2023-02-15T21:31:36;90.57;;;48.88;;
12308;SDS011;6217;48.150;17.142;2023-02-15T21:35:48;78.55;;;46.75;;
12308;SDS011;6217;48.150;17.142;2023-02-15T21:39:58;73.50;;;43.00;;
12308;SDS011;6217;48.150;17.142;2023-02-15T21:44:14;66.72;;;42.13;;
12308;SDS011;6217;48.150;17.142;2023-02-15T21:48:47;76.93;;;40.65;;
12308;SDS011;6217;48.150;17.142;2023-02-15T21:52:52;66.00;;;40.05;;
12308;SDS011;6217;48.150;17.142;2023-02-15T21:57:00;65.80;;;38.03;;
12308;SDS011;6217;48.150;17.142;2023-02-15T22:01:05;74.55;;;44.10;;
12308;SDS011;6217;48.150;17.142;2023-02-15T22:05:26;70.50;;;42.28;;
12308;SDS011;6217;48.150;17.142;2023-02-15T22:09:35;78.00;;;42.60;;
12308;SDS011;6217;48.150;17.142;2023-02-15T22:13:41;74.15;;;43.10;;
12308;SDS011;6217;48.150;17.142;2023-02-15T22:17:48;71.53;;;40.22;;
12308;SDS011;6217;48.150;17.142;2023-02-15T22:21:56;66.70;;;40.13;;
12308;SDS011;6217;48.150;17.142;2023-02-15T22:26:23;73.53;;;43.05;;
12308;SDS011;6217;48.150;17.142;2023-02-15T22:30:33;76.55;;;41.15;;
12308;SDS011;6217;48.150;17.142;2023-02-15T22:34:41;75.97;;;45.80;;
12308;SDS011;6217;48.150;17.142;2023-02-15T22:38:47;79.07;;;44.75;;
12308;SDS011;6217;48.150;17.142;2023-02-15T22:42:53;108.50;;;56.53;;
12308;SDS011;6217;48.150;17.142;2023-02-15T22:46:59;86.88;;;47.67;;
12308;SDS011;6217;48.150;17.142;2023-02-15T22:51:05;105.40;;;55.67;;
12308;SDS011;6217;48.150;17.142;2023-02-15T22:55:15;92.22;;;47.97;;
12308;SDS011;6217;48.150;17.142;2023-02-15T22:59:24;89.38;;;45.67;;
12308;SDS011;6217;48.150;17.142;2023-02-15T23:03:33;93.55;;;48.15;;
12308;SDS011;6217;48.150;17.142;2023-02-15T23:07:39;91.18;;;46.30;;
12308;SDS011;6217;48.150;17.142;2023-02-15T23:11:45;86.60;;;44.03;;
12308;SDS011;6217;48.150;17.142;2023-02-15T23:15:54;76.28;;;38.97;;
12308;SDS011;6217;48.150;17.142;2023-02-15T23:20:03;83.38;;;44.15;;
12308;SDS011;6217;48.150;17.142;2023-02-15T23:28:38;75.72;;;39.10;;
12308;SDS011;6217;48.150;17.142;2023-02-15T23:32:44;73.57;;;38.30;;
12308;SDS011;6217;48.150;17.142;2023-02-15T23:36:50;73.15;;;36.45;;
12308;SDS011;6217;48.150;17.142;2023-02-15T23:40:58;75.13;;;36.85;;
12308;SDS011;6217;48.150;17.142;2023-02-15T23:45:24;66.63;;;37.13;;
12308;SDS011;6217;48.150;17.142;2023-02-15T23:49:30;75.07;;;38.75;;
12308;SDS011;6217;48.150;17.142;2023-02-15T23:53:36;71.72;;;37.15;;
12308;SDS011;6217;48.150;17.142;2023-02-15T23:57:42;70.07;;;35.28;;
